Terminal Aerodrome Forecast
Issued by NWS

Current Version | Previous Version | Text Only | Print | Product List | Glossary On
Versions: 1 2 3 4 5 6 7 8 9 10 11 12 13 14 15 16 17 18 19 20 21 22
000
FTUS41 KALY 011100
TAFPSF
TAF
KPSF 011125Z 0112/0212 01006KT P6SM OVC060
     FM011400 01008G14KT P6SM -SHRA OVC035
     FM011800 36010G15KT P6SM -RA OVC035
      TEMPO 0119/0123 5SM -RA OVC030
     FM020100 34012G18KT 4SM -SHRASN OVC025
     FM020400 33012G20KT 4SM -SHSN OVC025
     FM020800 32014G25KT P6SM VCSH OVC035=

USA.gov is the U.S. government's official web portal to all federal, state and local government web resources and services.